sensor_id;sensor_type;location;lat;lon;timestamp;P1;durP1;ratioP1;P2;durP2;ratioP2
59410;SDS011;45215;32.610;-115.482;2022-09-03T00:02:06;2.72;;;0.63;;
59410;SDS011;45215;32.610;-115.482;2022-09-03T00:04:56;0.88;;;0.70;;
59410;SDS011;45215;32.610;-115.482;2022-09-03T00:07:48;0.55;;;0.50;;
59410;SDS011;45215;32.610;-115.482;2022-09-03T00:10:27;1.15;;;0.60;;
59410;SDS011;45215;32.610;-115.482;2022-09-03T00:13:00;3.30;;;0.70;;
59410;SDS011;45215;32.610;-115.482;2022-09-03T00:15:30;1.17;;;0.60;;
59410;SDS011;45215;32.610;-115.482;2022-09-03T00:18:09;1.40;;;0.60;;
59410;SDS011;45215;32.610;-115.482;2022-09-03T00:20:53;0.70;;;0.55;;
59410;SDS011;45215;32.610;-115.482;2022-09-03T00:23:25;2.28;;;0.88;;
59410;SDS011;45215;32.610;-115.482;2022-09-03T00:29:24;4.43;;;0.70;;
59410;SDS011;45215;32.610;-115.482;2022-09-03T00:31:38;9.73;;;0.88;;
59410;SDS011;45215;32.610;-115.482;2022-09-03T00:34:28;5.70;;;0.80;;
59410;SDS011;45215;32.610;-115.482;2022-09-03T00:36:59;6.63;;;0.90;;
59410;SDS011;45215;32.610;-115.482;2022-09-03T00:39:27;8.45;;;0.93;;
59410;SDS011;45215;32.610;-115.482;2022-09-03T00:42:03;6.32;;;0.80;;
59410;SDS011;45215;32.610;-115.482;2022-09-03T01:01:35;3.63;;;0.80;;
59410;SDS011;45215;32.610;-115.482;2022-09-03T01:12:50;2.25;;;0.70;;
59410;SDS011;45215;32.610;-115.482;2022-09-03T01:15:54;1.75;;;0.60;;
59410;SDS011;45215;32.610;-115.482;2022-09-03T01:21:31;1.55;;;0.73;;
59410;SDS011;45215;32.610;-115.482;2022-09-03T01:34:29;0.82;;;0.50;;
59410;SDS011;45215;32.610;-115.482;2022-09-03T01:42:24;5.20;;;0.80;;
59410;SDS011;45215;32.610;-115.482;2022-09-03T01:53:19;2.90;;;0.75;;
59410;SDS011;45215;32.610;-115.482;2022-09-03T01:56:10;1.23;;;0.55;;
59410;SDS011;45215;32.610;-115.482;2022-09-03T01:58:58;1.85;;;0.70;;
59410;SDS011;45215;32.610;-115.482;2022-09-03T02:01:43;1.17;;;0.60;;
59410;SDS011;45215;32.610;-115.482;2022-09-03T02:04:19;2.15;;;0.60;;
59410;SDS011;45215;32.610;-115.482;2022-09-03T02:06:49;0.90;;;0.50;;
59410;SDS011;45215;32.610;-115.482;2022-09-03T02:09:16;2.70;;;0.93;;
59410;SDS011;45215;32.610;-115.482;2022-09-03T02:11:43;3.08;;;0.70;;
59410;SDS011;45215;32.610;-115.482;2022-09-03T02:14:15;3.03;;;0.60;;
59410;SDS011;45215;32.610;-115.482;2022-09-03T02:16:41;5.38;;;0.80;;
59410;SDS011;45215;32.610;-115.482;2022-09-03T02:19:11;2.53;;;0.90;;
59410;SDS011;45215;32.610;-115.482;2022-09-03T02:21:44;1.67;;;0.73;;
59410;SDS011;45215;32.610;-115.482;2022-09-03T02:24:15;1.65;;;0.68;;
59410;SDS011;45215;32.610;-115.482;2022-09-03T02:26:41;2.20;;;0.70;;
59410;SDS011;45215;32.610;-115.482;2022-09-03T02:29:07;3.08;;;0.70;;
59410;SDS011;45215;32.610;-115.482;2022-09-03T02:31:35;2.70;;;0.77;;
59410;SDS011;45215;32.610;-115.482;2022-09-03T02:34:01;1.88;;;0.70;;
59410;SDS011;45215;32.610;-115.482;2022-09-03T02:36:32;4.32;;;0.90;;
59410;SDS011;45215;32.610;-115.482;2022-09-03T02:39:01;2.72;;;0.90;;
59410;SDS011;45215;32.610;-115.482;2022-09-03T02:41:28;1.50;;;0.70;;
59410;SDS011;45215;32.610;-115.482;2022-09-03T02:43:58;2.58;;;0.73;;
59410;SDS011;45215;32.610;-115.482;2022-09-03T02:46:32;3.08;;;1.00;;
59410;SDS011;45215;32.610;-115.482;2022-09-03T02:49:07;2.80;;;0.80;;
59410;SDS011;45215;32.610;-115.482;2022-09-03T02:51:37;1.52;;;0.88;;
59410;SDS011;45215;32.610;-115.482;2022-09-03T02:54:06;3.08;;;0.85;;
59410;SDS011;45215;32.610;-115.482;2022-09-03T02:56:34;4.25;;;0.98;;
59410;SDS011;45215;32.610;-115.482;2022-09-03T02:59:02;1.08;;;0.75;;
59410;SDS011;45215;32.610;-115.482;2022-09-03T03:01:30;16.75;;;1.70;;
59410;SDS011;45215;32.610;-115.482;2022-09-03T03:03:57;16.45;;;1.98;;
59410;SDS011;45215;32.610;-115.482;2022-09-03T03:06:23;14.48;;;1.40;;
59410;SDS011;45215;32.610;-115.482;2022-09-03T03:08:50;10.40;;;1.45;;
59410;SDS011;45215;32.610;-115.482;2022-09-03T03:11:20;10.27;;;1.23;;
59410;SDS011;45215;32.610;-115.482;2022-09-03T03:13:50;8.57;;;1.55;;
59410;SDS011;45215;32.610;-115.482;2022-09-03T03:16:17;6.85;;;1.15;;
59410;SDS011;45215;32.610;-115.482;2022-09-03T03:18:43;8.18;;;1.52;;
59410;SDS011;45215;32.610;-115.482;2022-09-03T03:21:13;5.47;;;1.40;;
59410;SDS011;45215;32.610;-115.482;2022-09-03T03:23:41;7.65;;;1.30;;
59410;SDS011;45215;32.610;-115.482;2022-09-03T03:26:09;4.15;;;1.20;;
59410;SDS011;45215;32.610;-115.482;2022-09-03T03:28:37;4.82;;;1.25;;
59410;SDS011;45215;32.610;-115.482;2022-09-03T03:33:32;8.10;;;1.90;;
59410;SDS011;45215;32.610;-115.482;2022-09-03T03:36:03;4.38;;;1.17;;
59410;SDS011;45215;32.610;-115.482;2022-09-03T03:40:57;6.50;;;1.52;;
59410;SDS011;45215;32.610;-115.482;2022-09-03T03:43:23;4.22;;;1.00;;
59410;SDS011;45215;32.610;-115.482;2022-09-03T03:45:59;5.90;;;1.40;;
59410;SDS011;45215;32.610;-115.482;2022-09-03T03:48:25;3.65;;;1.17;;
59410;SDS011;45215;32.610;-115.482;2022-09-03T03:50:51;6.07;;;1.17;;
59410;SDS011;45215;32.610;-115.482;2022-09-03T03:53:18;6.25;;;1.10;;
59410;SDS011;45215;32.610;-115.482;2022-09-03T03:55:57;5.70;;;1.20;;
59410;SDS011;45215;32.610;-115.482;2022-09-03T03:58:26;5.57;;;1.83;;
59410;SDS011;45215;32.610;-115.482;2022-09-03T04:00:54;26.27;;;8.20;;
59410;SDS011;45215;32.610;-115.482;2022-09-03T04:03:20;35.53;;;13.75;;
59410;SDS011;45215;32.610;-115.482;2022-09-03T04:05:56;51.38;;;20.48;;
59410;SDS011;45215;32.610;-115.482;2022-09-03T04:08:25;65.10;;;33.70;;
59410;SDS011;45215;32.610;-115.482;2022-09-03T04:10:52;99.78;;;64.63;;
59410;SDS011;45215;32.610;-115.482;2022-09-03T04:13:18;102.90;;;67.53;;
59410;SDS011;45215;32.610;-115.482;2022-09-03T04:15:44;115.82;;;68.85;;
59410;SDS011;45215;32.610;-115.482;2022-09-03T04:18:11;127.05;;;75.90;;
59410;SDS011;45215;32.610;-115.482;2022-09-03T04:20:37;143.88;;;80.82;;
59410;SDS011;45215;32.610;-115.482;2022-09-03T04:23:04;186.02;;;124.13;;
59410;SDS011;45215;32.610;-115.482;2022-09-03T04:25:30;171.88;;;128.02;;
59410;SDS011;45215;32.610;-115.482;2022-09-03T04:27:57;168.25;;;120.18;;
59410;SDS011;45215;32.610;-115.482;2022-09-03T04:30:23;151.02;;;111.47;;
59410;SDS011;45215;32.610;-115.482;2022-09-03T04:32:49;146.07;;;105.30;;
59410;SDS011;45215;32.610;-115.482;2022-09-03T04:35:20;116.90;;;93.38;;
59410;SDS011;45215;32.610;-115.482;2022-09-03T04:37:47;121.90;;;89.05;;
59410;SDS011;45215;32.610;-115.482;2022-09-03T04:40:14;107.00;;;85.18;;
59410;SDS011;45215;32.610;-115.482;2022-09-03T04:42:40;101.20;;;78.75;;
59410;SDS011;45215;32.610;-115.482;2022-09-03T04:45:06;93.10;;;70.57;;
59410;SDS011;45215;32.610;-115.482;2022-09-03T04:47:33;85.68;;;67.07;;
59410;SDS011;45215;32.610;-115.482;2022-09-03T04:50:02;78.10;;;63.67;;
59410;SDS011;45215;32.610;-115.482;2022-09-03T04:52:29;74.80;;;58.63;;
59410;SDS011;45215;32.610;-115.482;2022-09-03T04:54:56;68.82;;;53.70;;
59410;SDS011;45215;32.610;-115.482;2022-09-03T04:57:23;66.53;;;52.33;;
59410;SDS011;45215;32.610;-115.482;2022-09-03T04:59:51;58.15;;;48.05;;
59410;SDS011;45215;32.610;-115.482;2022-09-03T05:02:17;58.78;;;46.00;;
59410;SDS011;45215;32.610;-115.482;2022-09-03T05:04:45;55.70;;;43.08;;
59410;SDS011;45215;32.610;-115.482;2022-09-03T05:07:11;50.13;;;40.63;;
59410;SDS011;45215;32.610;-115.482;2022-09-03T05:09:38;46.95;;;37.90;;
59410;SDS011;45215;32.610;-115.482;2022-09-03T05:12:04;47.42;;;35.05;;
59410;SDS011;45215;32.610;-115.482;2022-09-03T05:14:30;47.53;;;34.63;;
59410;SDS011;45215;32.610;-115.482;2022-09-03T05:16:56;42.80;;;32.33;;
59410;SDS011;45215;32.610;-115.482;2022-09-03T05:19:22;36.33;;;27.80;;
59410;SDS011;45215;32.610;-115.482;2022-09-03T05:21:48;39.05;;;28.00;;
59410;SDS011;45215;32.610;-115.482;2022-09-03T05:24:15;33.83;;;25.55;;
59410;SDS011;45215;32.610;-115.482;2022-09-03T05:26:42;33.60;;;23.73;;
59410;SDS011;45215;32.610;-115.482;2022-09-03T05:29:08;25.92;;;22.13;;
59410;SDS011;45215;32.610;-115.482;2022-09-03T05:31:37;29.35;;;21.83;;
59410;SDS011;45215;32.610;-115.482;2022-09-03T05:34:04;24.48;;;20.13;;
59410;SDS011;45215;32.610;-115.482;2022-09-03T05:36:32;22.90;;;18.80;;
59410;SDS011;45215;32.610;-115.482;2022-09-03T05:39:00;22.38;;;17.45;;
59410;SDS011;45215;32.610;-115.482;2022-09-03T05:41:26;23.52;;;17.52;;
59410;SDS011;45215;32.610;-115.482;2022-09-03T05:43:54;20.20;;;15.43;;
59410;SDS011;45215;32.610;-115.482;2022-09-03T05:46:23;18.60;;;15.13;;
59410;SDS011;45215;32.610;-115.482;2022-09-03T05:48:56;19.23;;;15.23;;
59410;SDS011;45215;32.610;-115.482;2022-09-03T05:51:26;16.38;;;13.40;;
59410;SDS011;45215;32.610;-115.482;2022-09-03T05:53:53;18.23;;;14.07;;
59410;SDS011;45215;32.610;-115.482;2022-09-03T05:56:23;14.73;;;11.95;;
59410;SDS011;45215;32.610;-115.482;2022-09-03T05:58:52;13.90;;;11.55;;
59410;SDS011;45215;32.610;-115.482;2022-09-03T06:01:22;15.00;;;11.02;;
59410;SDS011;45215;32.610;-115.482;2022-09-03T06:03:54;15.80;;;11.13;;
59410;SDS011;45215;32.610;-115.482;2022-09-03T06:06:25;15.30;;;10.85;;
59410;SDS011;45215;32.610;-115.482;2022-09-03T06:08:53;11.60;;;9.60;;
59410;SDS011;45215;32.610;-115.482;2022-09-03T06:11:21;11.70;;;9.38;;
59410;SDS011;45215;32.610;-115.482;2022-09-03T06:14:00;11.75;;;8.27;;
59410;SDS011;45215;32.610;-115.482;2022-09-03T06:16:31;10.88;;;8.70;;
59410;SDS011;45215;32.610;-115.482;2022-09-03T06:18:58;9.48;;;7.82;;
59410;SDS011;45215;32.610;-115.482;2022-09-03T06:21:25;11.15;;;8.48;;
59410;SDS011;45215;32.610;-115.482;2022-09-03T06:23:52;11.20;;;7.70;;
59410;SDS011;45215;32.610;-115.482;2022-09-03T06:26:23;8.88;;;7.65;;
59410;SDS011;45215;32.610;-115.482;2022-09-03T06:28:50;9.95;;;7.28;;
59410;SDS011;45215;32.610;-115.482;2022-09-03T06:31:19;8.85;;;6.40;;
59410;SDS011;45215;32.610;-115.482;2022-09-03T06:33:46;8.23;;;6.20;;
59410;SDS011;45215;32.610;-115.482;2022-09-03T06:36:14;9.75;;;6.57;;
59410;SDS011;45215;32.610;-115.482;2022-09-03T06:38:42;7.93;;;6.00;;
59410;SDS011;45215;32.610;-115.482;2022-09-03T06:41:10;8.98;;;6.38;;
59410;SDS011;45215;32.610;-115.482;2022-09-03T06:43:38;7.03;;;5.50;;
59410;SDS011;45215;32.610;-115.482;2022-09-03T06:46:10;6.28;;;5.20;;
59410;SDS011;45215;32.610;-115.482;2022-09-03T06:51:08;5.80;;;4.93;;
59410;SDS011;45215;32.610;-115.482;2022-09-03T06:53:38;6.68;;;4.97;;
59410;SDS011;45215;32.610;-115.482;2022-09-03T06:56:09;6.32;;;4.72;;
59410;SDS011;45215;32.610;-115.482;2022-09-03T06:58:39;5.80;;;4.72;;
59410;SDS011;45215;32.610;-115.482;2022-09-03T07:01:10;6.00;;;4.40;;
59410;SDS011;45215;32.610;-115.482;2022-09-03T07:03:41;5.60;;;4.40;;
59410;SDS011;45215;32.610;-115.482;2022-09-03T07:06:10;5.85;;;3.80;;
59410;SDS011;45215;32.610;-115.482;2022-09-03T07:08:38;5.45;;;3.95;;
59410;SDS011;45215;32.610;-115.482;2022-09-03T07:11:06;5.25;;;4.10;;
59410;SDS011;45215;32.610;-115.482;2022-09-03T07:13:36;4.47;;;4.00;;
59410;SDS011;45215;32.610;-115.482;2022-09-03T07:16:06;5.18;;;4.10;;
59410;SDS011;45215;32.610;-115.482;2022-09-03T07:18:35;5.32;;;3.78;;
59410;SDS011;45215;32.610;-115.482;2022-09-03T07:21:05;5.43;;;3.63;;
59410;SDS011;45215;32.610;-115.482;2022-09-03T07:23:33;5.18;;;3.70;;
59410;SDS011;45215;32.610;-115.482;2022-09-03T07:26:02;5.00;;;3.67;;
59410;SDS011;45215;32.610;-115.482;2022-09-03T07:28:31;5.00;;;3.50;;
59410;SDS011;45215;32.610;-115.482;2022-09-03T07:31:03;4.20;;;3.40;;
59410;SDS011;45215;32.610;-115.482;2022-09-03T07:33:43;4.57;;;3.30;;
59410;SDS011;45215;32.610;-115.482;2022-09-03T07:36:10;3.40;;;3.08;;
59410;SDS011;45215;32.610;-115.482;2022-09-03T07:38:40;4.93;;;3.28;;
59410;SDS011;45215;32.610;-115.482;2022-09-03T07:41:11;3.55;;;2.95;;
59410;SDS011;45215;32.610;-115.482;2022-09-03T07:43:40;4.38;;;3.05;;
59410;SDS011;45215;32.610;-115.482;2022-09-03T07:46:08;4.60;;;3.17;;
59410;SDS011;45215;32.610;-115.482;2022-09-03T07:48:39;3.25;;;2.70;;
59410;SDS011;45215;32.610;-115.482;2022-09-03T07:51:06;4.50;;;2.90;;
59410;SDS011;45215;32.610;-115.482;2022-09-03T07:53:33;3.35;;;2.60;;
59410;SDS011;45215;32.610;-115.482;2022-09-03T07:56:04;4.05;;;2.97;;
59410;SDS011;45215;32.610;-115.482;2022-09-03T07:58:32;3.60;;;2.72;;
59410;SDS011;45215;32.610;-115.482;2022-09-03T08:01:06;3.75;;;2.60;;
59410;SDS011;45215;32.610;-115.482;2022-09-03T08:03:43;3.97;;;2.17;;
59410;SDS011;45215;32.610;-115.482;2022-09-03T08:06:11;3.28;;;2.30;;
59410;SDS011;45215;32.610;-115.482;2022-09-03T08:08:38;3.55;;;2.20;;
59410;SDS011;45215;32.610;-115.482;2022-09-03T08:11:06;3.15;;;2.38;;
59410;SDS011;45215;32.610;-115.482;2022-09-03T08:13:44;2.47;;;2.20;;
59410;SDS011;45215;32.610;-115.482;2022-09-03T08:16:19;3.00;;;2.30;;
59410;SDS011;45215;32.610;-115.482;2022-09-03T08:18:45;3.05;;;2.15;;
59410;SDS011;45215;32.610;-115.482;2022-09-03T08:21:16;9.73;;;2.10;;
59410;SDS011;45215;32.610;-115.482;2022-09-03T08:23:48;2.50;;;2.17;;
59410;SDS011;45215;32.610;-115.482;2022-09-03T08:26:16;3.40;;;2.40;;
59410;SDS011;45215;32.610;-115.482;2022-09-03T08:28:43;3.05;;;2.15;;
59410;SDS011;45215;32.610;-115.482;2022-09-03T08:31:14;3.42;;;2.10;;
59410;SDS011;45215;32.610;-115.482;2022-09-03T08:33:43;3.38;;;2.15;;
59410;SDS011;45215;32.610;-115.482;2022-09-03T08:36:15;2.97;;;2.08;;
59410;SDS011;45215;32.610;-115.482;2022-09-03T08:38:42;3.33;;;2.20;;
59410;SDS011;45215;32.610;-115.482;2022-09-03T08:41:27;3.15;;;2.03;;
59410;SDS011;45215;32.610;-115.482;2022-09-03T08:47:01;2.33;;;1.73;;
59410;SDS011;45215;32.610;-115.482;2022-09-03T08:50:03;3.03;;;2.20;;
59410;SDS011;45215;32.610;-115.482;2022-09-03T08:52:40;3.10;;;2.15;;
59410;SDS011;45215;32.610;-115.482;2022-09-03T09:03:36;2.58;;;1.90;;
59410;SDS011;45215;32.610;-115.482;2022-09-03T09:18:27;3.55;;;1.75;;
59410;SDS011;45215;32.610;-115.482;2022-09-03T09:21:22;2.03;;;1.55;;
59410;SDS011;45215;32.610;-115.482;2022-09-03T09:23:52;2.72;;;1.70;;
59410;SDS011;45215;32.610;-115.482;2022-09-03T09:26:27;2.55;;;1.70;;
59410;SDS011;45215;32.610;-115.482;2022-09-03T09:28:59;2.03;;;1.50;;
59410;SDS011;45215;32.610;-115.482;2022-09-03T09:31:30;2.10;;;1.38;;
59410;SDS011;45215;32.610;-115.482;2022-09-03T09:34:01;2.78;;;1.58;;
59410;SDS011;45215;32.610;-115.482;2022-09-03T09:36:31;2.80;;;1.73;;
59410;SDS011;45215;32.610;-115.482;2022-09-03T09:39:07;1.83;;;1.50;;
59410;SDS011;45215;32.610;-115.482;2022-09-03T09:41:34;2.15;;;1.63;;
59410;SDS011;45215;32.610;-115.482;2022-09-03T09:44:01;1.70;;;1.33;;
59410;SDS011;45215;32.610;-115.482;2022-09-03T09:46:38;2.88;;;1.48;;
59410;SDS011;45215;32.610;-115.482;2022-09-03T09:49:07;2.45;;;1.45;;
59410;SDS011;45215;32.610;-115.482;2022-09-03T09:52:10;2.33;;;1.38;;
59410;SDS011;45215;32.610;-115.482;2022-09-03T09:54:39;2.70;;;1.70;;
59410;SDS011;45215;32.610;-115.482;2022-09-03T09:57:13;2.75;;;1.55;;
59410;SDS011;45215;32.610;-115.482;2022-09-03T09:59:42;2.25;;;1.38;;
59410;SDS011;45215;32.610;-115.482;2022-09-03T10:02:28;3.45;;;1.67;;
59410;SDS011;45215;32.610;-115.482;2022-09-03T10:04:55;2.28;;;1.40;;
59410;SDS011;45215;32.610;-115.482;2022-09-03T10:07:36;2.00;;;1.35;;
59410;SDS011;45215;32.610;-115.482;2022-09-03T10:15:24;2.60;;;1.30;;
59410;SDS011;45215;32.610;-115.482;2022-09-03T10:20:57;1.80;;;1.30;;
59410;SDS011;45215;32.610;-115.482;2022-09-03T10:26:24;2.25;;;1.20;;
59410;SDS011;45215;32.610;-115.482;2022-09-03T10:28:58;1.92;;;1.17;;
59410;SDS011;45215;32.610;-115.482;2022-09-03T10:51:16;1.75;;;1.20;;
59410;SDS011;45215;32.610;-115.482;2022-09-03T10:54:29;2.88;;;1.20;;
59410;SDS011;45215;32.610;-115.482;2022-09-03T11:05:11;1.70;;;1.17;;
59410;SDS011;45215;32.610;-115.482;2022-09-03T11:08:27;1.48;;;1.20;;
59410;SDS011;45215;32.610;-115.482;2022-09-03T11:13:55;1.52;;;1.00;;
59410;SDS011;45215;32.610;-115.482;2022-09-03T11:17:07;1.70;;;1.00;;
59410;SDS011;45215;32.610;-115.482;2022-09-03T11:19:16;1.83;;;1.08;;
59410;SDS011;45215;32.610;-115.482;2022-09-03T11:21:45;1.33;;;1.00;;
59410;SDS011;45215;32.610;-115.482;2022-09-03T11:24:20;2.15;;;1.00;;
59410;SDS011;45215;32.610;-115.482;2022-09-03T11:26:53;1.75;;;1.20;;
59410;SDS011;45215;32.610;-115.482;2022-09-03T11:29:36;2.03;;;1.20;;
59410;SDS011;45215;32.610;-115.482;2022-09-03T11:32:24;1.75;;;1.10;;
59410;SDS011;45215;32.610;-115.482;2022-09-03T11:35:28;1.65;;;1.10;;
59410;SDS011;45215;32.610;-115.482;2022-09-03T11:38:05;1.10;;;0.80;;
59410;SDS011;45215;32.610;-115.482;2022-09-03T11:43:27;1.30;;;0.90;;
59410;SDS011;45215;32.610;-115.482;2022-09-03T11:46:06;1.50;;;1.00;;
59410;SDS011;45215;32.610;-115.482;2022-09-03T11:48:53;1.50;;;1.00;;
59410;SDS011;45215;32.610;-115.482;2022-09-03T11:51:34;1.30;;;0.90;;
59410;SDS011;45215;32.610;-115.482;2022-09-03T11:54:06;1.27;;;0.80;;
59410;SDS011;45215;32.610;-115.482;2022-09-03T11:56:38;1.02;;;0.93;;
59410;SDS011;45215;32.610;-115.482;2022-09-03T11:59:18;1.23;;;0.93;;
59410;SDS011;45215;32.610;-115.482;2022-09-03T12:04:23;1.35;;;0.85;;
59410;SDS011;45215;32.610;-115.482;2022-09-03T12:18:21;1.55;;;1.00;;
59410;SDS011;45215;32.610;-115.482;2022-09-03T12:23:25;1.63;;;0.90;;
59410;SDS011;45215;32.610;-115.482;2022-09-03T12:26:07;2.63;;;1.15;;
59410;SDS011;45215;32.610;-115.482;2022-09-03T12:28:40;1.50;;;0.90;;
59410;SDS011;45215;32.610;-115.482;2022-09-03T12:33:48;1.33;;;0.90;;
59410;SDS011;45215;32.610;-115.482;2022-09-03T12:36:22;1.23;;;1.00;;
59410;SDS011;45215;32.610;-115.482;2022-09-03T12:38:48;1.38;;;0.90;;
59410;SDS011;45215;32.610;-115.482;2022-09-03T12:41:28;1.13;;;0.90;;
59410;SDS011;45215;32.610;-115.482;2022-09-03T12:43:59;1.90;;;1.10;;
59410;SDS011;45215;32.610;-115.482;2022-09-03T12:46:26;1.27;;;0.80;;
59410;SDS011;45215;32.610;-115.482;2022-09-03T12:49:03;3.63;;;0.65;;
59410;SDS011;45215;32.610;-115.482;2022-09-03T12:51:38;1.75;;;0.98;;
59410;SDS011;45215;32.610;-115.482;2022-09-03T12:54:09;1.60;;;1.05;;
59410;SDS011;45215;32.610;-115.482;2022-09-03T12:56:47;1.20;;;0.90;;
59410;SDS011;45215;32.610;-115.482;2022-09-03T12:59:20;1.20;;;0.98;;
59410;SDS011;45215;32.610;-115.482;2022-09-03T13:01:53;1.45;;;0.98;;
59410;SDS011;45215;32.610;-115.482;2022-09-03T13:04:25;1.48;;;0.90;;
59410;SDS011;45215;32.610;-115.482;2022-09-03T13:07:03;1.85;;;1.00;;
59410;SDS011;45215;32.610;-115.482;2022-09-03T13:09:36;1.00;;;0.90;;
59410;SDS011;45215;32.610;-115.482;2022-09-03T13:12:06;1.20;;;0.95;;
59410;SDS011;45215;32.610;-115.482;2022-09-03T13:14:46;2.72;;;1.05;;
59410;SDS011;45215;32.610;-115.482;2022-09-03T13:23:08;2.83;;;1.00;;
59410;SDS011;45215;32.610;-115.482;2022-09-03T13:25:46;1.95;;;1.10;;
59410;SDS011;45215;32.610;-115.482;2022-09-03T13:34:21;2.20;;;0.98;;
59410;SDS011;45215;32.610;-115.482;2022-09-03T13:37:39;2.63;;;1.15;;
59410;SDS011;45215;32.610;-115.482;2022-09-03T13:39:53;2.85;;;1.13;;
59410;SDS011;45215;32.610;-115.482;2022-09-03T13:42:34;2.27;;;1.17;;
59410;SDS011;45215;32.610;-115.482;2022-09-03T13:53:41;2.50;;;1.20;;
59410;SDS011;45215;32.610;-115.482;2022-09-03T13:57:06;2.13;;;1.17;;
59410;SDS011;45215;32.610;-115.482;2022-09-03T14:07:50;4.13;;;1.10;;
59410;SDS011;45215;32.610;-115.482;2022-09-03T14:18:58;2.65;;;1.60;;
59410;SDS011;45215;32.610;-115.482;2022-09-03T14:21:32;3.33;;;1.63;;
59410;SDS011;45215;32.610;-115.482;2022-09-03T14:26:56;2.28;;;1.20;;
59410;SDS011;45215;32.610;-115.482;2022-09-03T14:29:29;2.00;;;1.15;;
59410;SDS011;45215;32.610;-115.482;2022-09-03T14:37:47;3.47;;;1.33;;
59410;SDS011;45215;32.610;-115.482;2022-09-03T14:40:20;3.22;;;1.40;;
59410;SDS011;45215;32.610;-115.482;2022-09-03T14:42:58;2.58;;;1.38;;
59410;SDS011;45215;32.610;-115.482;2022-09-03T14:45:42;3.03;;;1.50;;
59410;SDS011;45215;32.610;-115.482;2022-09-03T14:53:30;5.95;;;1.83;;
59410;SDS011;45215;32.610;-115.482;2022-09-03T14:56:21;5.53;;;1.70;;
59410;SDS011;45215;32.610;-115.482;2022-09-03T14:58:59;6.60;;;1.88;;
59410;SDS011;45215;32.610;-115.482;2022-09-03T15:07:23;4.85;;;1.90;;
59410;SDS011;45215;32.610;-115.482;2022-09-03T15:24:01;7.75;;;2.20;;
59410;SDS011;45215;32.610;-115.482;2022-09-03T15:27:02;5.05;;;2.00;;
59410;SDS011;45215;32.610;-115.482;2022-09-03T15:41:16;9.07;;;2.38;;
59410;SDS011;45215;32.610;-115.482;2022-09-03T15:43:57;6.22;;;2.00;;
59410;SDS011;45215;32.610;-115.482;2022-09-03T15:49:17;5.55;;;2.28;;
59410;SDS011;45215;32.610;-115.482;2022-09-03T15:51:48;5.55;;;1.73;;
59410;SDS011;45215;32.610;-115.482;2022-09-03T15:54:59;4.38;;;1.88;;
59410;SDS011;45215;32.610;-115.482;2022-09-03T15:57:27;5.85;;;2.10;;
59410;SDS011;45215;32.610;-115.482;2022-09-03T16:16:04;3.58;;;1.45;;
59410;SDS011;45215;32.610;-115.482;2022-09-03T16:18:40;4.05;;;1.67;;
59410;SDS011;45215;32.610;-115.482;2022-09-03T16:21:35;2.60;;;1.50;;
59410;SDS011;45215;32.610;-115.482;2022-09-03T16:26:47;2.78;;;1.63;;
59410;SDS011;45215;32.610;-115.482;2022-09-03T16:29:23;3.85;;;1.50;;
59410;SDS011;45215;32.610;-115.482;2022-09-03T16:34:42;2.40;;;1.33;;
59410;SDS011;45215;32.610;-115.482;2022-09-03T16:42:47;4.28;;;1.50;;
59410;SDS011;45215;32.610;-115.482;2022-09-03T16:51:07;2.55;;;1.40;;
59410;SDS011;45215;32.610;-115.482;2022-09-03T16:56:45;3.15;;;1.60;;
59410;SDS011;45215;32.610;-115.482;2022-09-03T17:16:28;7.53;;;1.60;;
59410;SDS011;45215;32.610;-115.482;2022-09-03T17:19:10;3.65;;;1.42;;
59410;SDS011;45215;32.610;-115.482;2022-09-03T17:24:22;4.57;;;1.55;;
59410;SDS011;45215;32.610;-115.482;2022-09-03T17:35:26;9.70;;;1.50;;
59410;SDS011;45215;32.610;-115.482;2022-09-03T17:54:20;10.90;;;2.78;;
59410;SDS011;45215;32.610;-115.482;2022-09-03T17:59:52;73.75;;;60.25;;
59410;SDS011;45215;32.610;-115.482;2022-09-03T18:10:48;91.75;;;78.72;;
59410;SDS011;45215;32.610;-115.482;2022-09-03T18:16:31;90.63;;;80.93;;
59410;SDS011;45215;32.610;-115.482;2022-09-03T18:19:44;107.35;;;96.70;;
59410;SDS011;45215;32.610;-115.482;2022-09-03T18:22:21;129.18;;;117.25;;
59410;SDS011;45215;32.610;-115.482;2022-09-03T18:25:14;139.32;;;126.35;;
59410;SDS011;45215;32.610;-115.482;2022-09-03T18:28:00;333.25;;;298.23;;
59410;SDS011;45215;32.610;-115.482;2022-09-03T18:33:35;463.15;;;383.92;;
59410;SDS011;45215;32.610;-115.482;2022-09-03T18:36:19;454.52;;;376.25;;
59410;SDS011;45215;32.610;-115.482;2022-09-03T18:39:13;423.67;;;359.15;;
59410;SDS011;45215;32.610;-115.482;2022-09-03T18:42:12;412.60;;;348.60;;
59410;SDS011;45215;32.610;-115.482;2022-09-03T19:00:40;408.48;;;278.08;;
59410;SDS011;45215;32.610;-115.482;2022-09-03T19:04:00;460.10;;;292.23;;
59410;SDS011;45215;32.610;-115.482;2022-09-03T19:10:21;456.50;;;296.08;;
59410;SDS011;45215;32.610;-115.482;2022-09-03T19:22:36;318.17;;;222.63;;
59410;SDS011;45215;32.610;-115.482;2022-09-03T19:25:21;284.95;;;199.85;;
59410;SDS011;45215;32.610;-115.482;2022-09-03T19:31:13;251.23;;;178.15;;
59410;SDS011;45215;32.610;-115.482;2022-09-03T19:40:05;205.85;;;143.73;;
59410;SDS011;45215;32.610;-115.482;2022-09-03T19:54:46;138.88;;;98.57;;
59410;SDS011;45215;32.610;-115.482;2022-09-03T19:57:35;122.70;;;84.35;;
59410;SDS011;45215;32.610;-115.482;2022-09-03T20:00:21;107.85;;;78.25;;
59410;SDS011;45215;32.610;-115.482;2022-09-03T20:03:06;102.10;;;73.32;;
59410;SDS011;45215;32.610;-115.482;2022-09-03T20:05:51;91.40;;;67.25;;
59410;SDS011;45215;32.610;-115.482;2022-09-03T20:08:36;89.63;;;64.45;;
59410;SDS011;45215;32.610;-115.482;2022-09-03T20:11:21;84.20;;;61.20;;
59410;SDS011;45215;32.610;-115.482;2022-09-03T20:13:51;73.20;;;54.08;;
59410;SDS011;45215;32.610;-115.482;2022-09-03T20:16:49;72.70;;;52.33;;
59410;SDS011;45215;32.610;-115.482;2022-09-03T20:22:17;61.85;;;44.83;;
59410;SDS011;45215;32.610;-115.482;2022-09-03T20:27:40;56.40;;;41.75;;
59410;SDS011;45215;32.610;-115.482;2022-09-03T20:30:21;54.20;;;38.67;;
59410;SDS011;45215;32.610;-115.482;2022-09-03T20:38:27;44.83;;;33.90;;
59410;SDS011;45215;32.610;-115.482;2022-09-03T20:41:22;40.42;;;31.50;;
59410;SDS011;45215;32.610;-115.482;2022-09-03T20:44:07;41.33;;;30.65;;
59410;SDS011;45215;32.610;-115.482;2022-09-03T20:52:14;37.05;;;25.90;;
59410;SDS011;45215;32.610;-115.482;2022-09-03T21:03:29;30.38;;;22.48;;
59410;SDS011;45215;32.610;-115.482;2022-09-03T21:08:50;24.85;;;19.40;;
59410;SDS011;45215;32.610;-115.482;2022-09-03T21:25:17;17.70;;;14.50;;
59410;SDS011;45215;32.610;-115.482;2022-09-03T21:27:50;19.08;;;14.00;;
59410;SDS011;45215;32.610;-115.482;2022-09-03T21:30:23;19.33;;;13.95;;
59410;SDS011;45215;32.610;-115.482;2022-09-03T21:33:03;16.10;;;13.32;;
59410;SDS011;45215;32.610;-115.482;2022-09-03T21:35:41;16.05;;;12.35;;
59410;SDS011;45215;32.610;-115.482;2022-09-03T21:38:22;16.23;;;12.30;;
59410;SDS011;45215;32.610;-115.482;2022-09-03T21:46:33;13.73;;;11.32;;
59410;SDS011;45215;32.610;-115.482;2022-09-03T21:49:09;14.20;;;10.77;;
59410;SDS011;45215;32.610;-115.482;2022-09-03T21:54:32;12.68;;;9.20;;